Hovedside
METAR-TAF:

METAR-TAF

Lufthavner :

King Cove, Alaska, USA

breddegrad: 55-06-59N, lengdegrad: 162-15-58W, høyde over havet: 47 m

Gjeldene værobservasjon

Denne rapporten ble laget for 49 minutter siden, klokken 14:56 UTC
Vind 4 kt fra Nordøst
Temperatur 1°C
Luftfuktighet 100%
Trykk 1009 hPa
Sikt: 11.3 km
Brutte skyer i en høyde av 600 ft
Overskyet i en høyde av 1100 ft
lett snø

METAR: PAVC 231456Z AUTO 05004KT 7SM -SN BKN006 OVC011 01/01 A2980 RMK AO2 UPE1358SNB1358 SLP092 P0000 60000 T00060006 55004 FZRANO

Tid: 06:45 (15:45 UTC)


TAF: fraværende

Værobservasjoner og værvarsel for over 4000 flyplasser (METAR- og TAF-rapporter).

Tilgjengelige stasjoner er representert av de røde og gule prikkene på kartet.

Hold musepekeren over prikken for å se navnet på stasjonen.

Klikk så for å se værobservasjoner og -varsler.

For å forandre kartet kan du klikke på den grønne knappen med svart kryss for å zoome inn, på den grønne knappen med strek for å zoome ut, eller på de grønne pilene for å se tilstøtende kart.


METAR-TAF: